Time;durP1;ratioP1;P1;durP2;ratioP2;P2;SDS_P1;SDS_P2;PMS_P1;PMS_P2;Temp;Humidity;BMP_temperature;BMP_pressure;BME280_temperature;BME280_humidity;BME280_pressure;Samples;Min_cycle;Max_cycle;Signal;HPM_P1;HPM_P2
2021/06/13 00:02:17;;;;;;;7.25;3.63;;;;;;;14.21;62.85;102341.25;5024728;28;20033;-72
2021/06/13 00:04:43;;;;;;;7.75;3.38;;;;;;;14.20;62.69;102342.22;5043957;28;20029;-73
2021/06/13 00:07:08;;;;;;;9.23;4.53;;;;;;;14.18;62.82;102345.94;5041744;28;20037;-72
2021/06/13 00:09:34;;;;;;;10.02;4.13;;;;;;;14.18;62.87;102351.16;5033692;28;20048;-73
2021/06/13 00:11:59;;;;;;;8.15;4.57;;;;;;;14.17;62.91;102349.50;5059459;28;20033;-72
2021/06/13 00:14:25;;;;;;;8.90;4.28;;;;;;;14.13;63.03;102342.94;5036472;28;20037;-72
2021/06/13 00:16:53;;;;;;;6.75;3.72;;;;;;;14.11;62.99;102342.22;5043772;28;20411;-72
2021/06/13 00:19:19;;;;;;;11.45;4.47;;;;;;;14.08;62.92;102345.16;5038990;28;20034;-72
2021/06/13 00:21:45;;;;;;;7.65;3.90;;;;;;;14.05;63.07;102348.03;5040489;28;20100;-73
2021/06/13 00:24:11;;;;;;;11.20;4.00;;;;;;;13.98;63.41;102351.19;5028815;28;20032;-72
2021/06/13 00:26:37;;;;;;;9.38;4.15;;;;;;;13.94;63.47;102346.44;5050157;28;20106;-72
2021/06/13 00:29:03;;;;;;;8.07;4.35;;;;;;;13.92;63.58;102348.31;5052159;28;20036;-72
2021/06/13 00:31:30;;;;;;;8.55;3.78;;;;;;;13.89;63.78;102349.44;5038616;28;20040;-72
2021/06/13 00:33:55;;;;;;;6.43;3.72;;;;;;;13.86;63.80;102354.09;5054548;28;20032;-72
2021/06/13 00:36:21;;;;;;;9.50;4.15;;;;;;;13.82;63.91;102348.34;5035079;28;20025;-73
2021/06/13 00:38:47;;;;;;;8.73;4.22;;;;;;;13.77;64.32;102350.56;5013195;28;20074;-73
2021/06/13 00:41:18;;;;;;;10.45;4.22;;;;;;;13.73;64.80;102347.41;5039557;28;20707;-72
2021/06/13 00:43:45;;;;;;;11.02;4.70;;;;;;;13.70;64.50;102346.88;5045553;28;20075;-72
2021/06/13 00:46:11;;;;;;;11.40;4.55;;;;;;;13.65;64.53;102349.88;5052358;28;20426;-72
2021/06/13 00:48:38;;;;;;;11.57;4.85;;;;;;;13.62;64.63;102352.78;5045279;28;20491;-72
2021/06/13 00:51:04;;;;;;;12.25;4.78;;;;;;;13.57;64.75;102347.97;5043562;28;20581;-72
2021/06/13 00:53:31;;;;;;;8.00;4.07;;;;;;;13.52;65.15;102357.16;5048656;28;20517;-72
2021/06/13 00:56:02;;;;;;;5.60;3.47;;;;;;;13.46;65.45;102355.09;5036794;28;20106;-72
2021/06/13 00:58:31;;;;;;;10.55;4.15;;;;;;;13.41;65.74;102358.09;5048365;28;20036;-72
2021/06/13 01:01:00;;;;;;;7.80;4.85;;;;;;;13.31;65.97;102360.72;5050085;28;20439;-72
2021/06/13 01:03:29;;;;;;;12.77;4.50;;;;;;;13.27;65.99;102361.09;5065107;28;20032;-72
2021/06/13 01:05:56;;;;;;;6.97;3.95;;;;;;;13.21;66.21;102367.66;5049521;28;20029;-73
2021/06/13 01:08:55;;;;;;;10.35;4.93;;;;;;;13.13;66.66;102364.91;5025473;28;20028;-71
2021/06/13 01:11:46;;;;;;;7.25;4.03;;;;;;;12.95;66.81;102373.38;5052048;28;20682;-72
2021/06/13 01:14:50;;;;;;;10.65;4.78;;;;;;;12.84;67.44;102365.66;5051523;28;20068;-72
2021/06/13 01:17:32;;;;;;;10.20;4.53;;;;;;;12.83;67.42;102371.84;5040155;28;20040;-72
2021/06/13 01:20:12;;;;;;;10.38;4.88;;;;;;;12.83;67.43;102367.44;5051348;28;20029;-72
2021/06/13 01:23:01;;;;;;;8.07;4.13;;;;;;;12.85;67.39;102367.31;5064492;28;20032;-72
2021/06/13 01:25:45;;;;;;;8.02;4.70;;;;;;;12.86;67.26;102361.16;5056038;28;20372;-72
2021/06/13 01:28:48;;;;;;;14.65;4.53;;;;;;;12.84;67.59;102365.66;5049620;28;20029;-73
2021/06/13 01:31:20;;;;;;;7.75;4.32;;;;;;;12.80;67.37;102359.09;5053802;28;20024;-72
2021/06/13 01:33:47;;;;;;;11.57;5.57;;;;;;;12.76;67.57;102365.50;5052065;28;20094;-72
2021/06/13 01:36:16;;;;;;;10.90;4.68;;;;;;;12.69;67.69;102362.59;5048339;28;20517;-73
2021/06/13 01:38:44;;;;;;;11.00;4.97;;;;;;;12.68;67.92;102367.94;5034849;28;20056;-72
2021/06/13 01:41:17;;;;;;;9.93;4.88;;;;;;;12.66;68.06;102365.47;5048636;28;20499;-72
2021/06/13 01:43:43;;;;;;;9.43;4.78;;;;;;;12.61;68.36;102362.44;5047214;28;20090;-73
2021/06/13 01:46:11;;;;;;;12.07;5.38;;;;;;;12.52;68.73;102368.44;5034526;28;20059;-72
2021/06/13 01:48:38;;;;;;;9.32;4.78;;;;;;;12.45;68.86;102370.72;5041767;28;20513;-73
2021/06/13 01:51:06;;;;;;;11.38;5.15;;;;;;;12.43;68.86;102367.41;5034790;28;20036;-72
2021/06/13 01:53:41;;;;;;;10.90;5.15;;;;;;;12.40;68.84;102355.50;5034607;28;20047;-72
2021/06/13 01:56:17;;;;;;;10.45;5.05;;;;;;;12.40;68.88;102355.50;5061643;28;20048;-72
2021/06/13 01:58:45;;;;;;;16.35;5.28;;;;;;;12.41;68.85;102362.38;5049969;28;20036;-72
2021/06/13 02:01:26;;;;;;;17.33;5.20;;;;;;;12.39;68.70;102358.22;5046578;28;20032;-72
2021/06/13 02:03:54;;;;;;;11.85;5.10;;;;;;;12.36;68.68;102359.34;5050195;28;20041;-72
2021/06/13 02:06:53;;;;;;;10.05;5.18;;;;;;;12.35;68.90;102352.47;5049066;28;20035;-72
2021/06/13 02:09:29;;;;;;;11.98;5.47;;;;;;;12.33;68.82;102363.97;5032487;28;20037;-72
2021/06/13 02:12:04;;;;;;;11.93;6.45;;;;;;;12.30;69.13;102366.81;5051307;28;20048;-72
2021/06/13 02:14:33;;;;;;;17.52;5.65;;;;;;;12.27;68.77;102371.31;5047191;28;20032;-72
2021/06/13 02:17:05;;;;;;;13.98;5.35;;;;;;;12.26;68.87;102366.25;5064858;28;20036;-72
2021/06/13 02:19:35;;;;;;;9.30;5.47;;;;;;;12.23;69.12;102366.53;5028692;28;20032;-72
2021/06/13 02:22:10;;;;;;;11.68;6.00;;;;;;;12.15;69.60;102372.38;5033648;28;20368;-73
2021/06/13 02:24:38;;;;;;;13.35;6.50;;;;;;;12.10;69.81;102377.13;5052152;28;20043;-72
2021/06/13 02:27:05;;;;;;;13.02;5.80;;;;;;;12.07;69.75;102373.00;5049316;28;20544;-72
2021/06/13 02:29:38;;;;;;;22.35;6.45;;;;;;;12.00;69.98;102374.47;5048555;28;20033;-72
2021/06/13 02:32:05;;;;;;;15.50;5.68;;;;;;;11.95;70.36;102371.41;5047233;28;20495;-72
2021/06/13 02:34:31;;;;;;;14.57;6.15;;;;;;;11.92;70.38;102370.84;5034284;28;20036;-72
2021/06/13 02:37:03;;;;;;;12.00;5.60;;;;;;;11.92;70.37;102379.44;5048798;28;20082;-71
2021/06/13 02:39:31;;;;;;;19.85;6.78;;;;;;;11.92;70.35;102368.25;5034489;28;20032;-72
2021/06/13 02:42:02;;;;;;;13.30;5.90;;;;;;;11.91;70.46;102369.19;5050147;28;20035;-72
2021/06/13 02:44:28;;;;;;;15.10;6.43;;;;;;;11.89;70.45;102374.50;5034925;28;20032;-72
2021/06/13 02:46:54;;;;;;;19.23;6.80;;;;;;;11.86;70.49;102367.75;5057121;28;20024;-72
2021/06/13 02:49:21;;;;;;;17.20;7.63;;;;;;;11.80;70.97;102370.84;5031855;28;20062;-72
2021/06/13 02:51:57;;;;;;;14.85;7.38;;;;;;;11.73;71.49;102369.72;5065753;28;20394;-71
2021/06/13 02:54:25;;;;;;;12.52;6.45;;;;;;;11.67;72.02;102372.81;5050416;28;20044;-72
2021/06/13 02:56:59;;;;;;;14.07;6.78;;;;;;;11.64;71.66;102378.25;5054231;28;20103;-72
2021/06/13 02:59:47;;;;;;;12.73;6.32;;;;;;;11.62;71.48;102373.19;5052464;28;20036;-72
2021/06/13 03:02:20;;;;;;;15.70;6.85;;;;;;;11.60;71.62;102369.91;5048806;28;20067;-72
2021/06/13 03:04:47;;;;;;;13.45;7.95;;;;;;;11.61;71.61;102375.91;5044300;28;20028;-72
2021/06/13 03:07:17;;;;;;;17.02;7.03;;;;;;;11.59;71.42;102376.03;5049948;28;20024;-72
2021/06/13 03:09:44;;;;;;;16.38;7.13;;;;;;;11.59;71.43;102381.22;5049465;28;20090;-71
2021/06/13 03:12:16;;;;;;;14.98;7.45;;;;;;;11.58;71.44;102381.34;5037098;28;20036;-72
2021/06/13 03:14:43;;;;;;;14.55;6.82;;;;;;;11.57;71.36;102390.94;5064813;28;20043;-72
2021/06/13 03:17:10;;;;;;;13.35;6.72;;;;;;;11.56;71.62;102383.25;5046024;28;20039;-72
2021/06/13 03:19:41;;;;;;;21.10;7.80;;;;;;;11.55;71.78;102386.81;5060262;28;20032;-72
2021/06/13 03:22:07;;;;;;;16.27;7.07;;;;;;;11.54;71.78;102388.56;5048542;28;20021;-72
2021/06/13 03:24:40;;;;;;;17.27;7.57;;;;;;;11.52;71.82;102397.44;5049244;28;20050;-72
2021/06/13 03:27:08;;;;;;;18.02;7.32;;;;;;;11.47;71.78;102398.63;5052680;28;20032;-72
2021/06/13 03:29:39;;;;;;;16.17;8.55;;;;;;;11.45;72.08;102394.50;5046899;28;20036;-72
2021/06/13 03:32:12;;;;;;;15.05;7.38;;;;;;;11.44;72.27;102400.66;5064298;28;20048;-72
2021/06/13 03:34:43;;;;;;;20.75;9.07;;;;;;;11.40;72.89;102404.44;5042965;28;20115;-72
2021/06/13 03:37:10;;;;;;;19.42;8.70;;;;;;;11.30;73.42;102402.59;5041800;28;20072;-72
2021/06/13 03:39:44;;;;;;;17.23;7.93;;;;;;;11.25;73.41;102407.31;5039269;28;20087;-72
2021/06/13 03:42:14;;;;;;;20.33;7.93;;;;;;;11.21;73.70;102403.31;5047213;28;20060;-72
2021/06/13 03:44:41;;;;;;;14.20;7.13;;;;;;;11.21;73.46;102413.69;5048269;28;20056;-72
2021/06/13 03:47:08;;;;;;;22.50;8.90;;;;;;;11.20;73.50;102411.22;5061493;28;20025;-72
2021/06/13 03:49:35;;;;;;;17.67;8.73;;;;;;;11.14;73.71;102411.69;5042654;28;20033;-72
2021/06/13 03:52:00;;;;;;;17.20;7.50;;;;;;;11.12;74.16;102413.59;5045025;28;20130;-71
2021/06/13 03:54:26;;;;;;;17.90;8.40;;;;;;;11.10;74.43;102416.31;5061821;28;20108;-73
2021/06/13 03:56:54;;;;;;;14.65;7.97;;;;;;;11.08;74.75;102420.78;5044323;28;20384;-72
2021/06/13 03:59:28;;;;;;;18.77;10.30;;;;;;;11.06;75.02;102415.72;5032967;28;20086;-72
2021/06/13 04:01:56;;;;;;;17.63;8.07;;;;;;;11.09;74.86;102427.63;5065204;28;20478;-72
2021/06/13 04:04:26;;;;;;;15.43;7.57;;;;;;;11.13;74.51;102428.22;5044134;28;20044;-72
2021/06/13 04:06:54;;;;;;;19.25;8.98;;;;;;;11.16;74.48;102425.38;5063180;28;20036;-72
2021/06/13 04:09:21;;;;;;;15.90;8.63;;;;;;;11.19;74.13;102425.97;5028842;28;20036;-73
2021/06/13 04:11:50;;;;;;;20.35;8.88;;;;;;;11.23;74.32;102426.56;5030074;28;20501;-71
2021/06/13 04:14:16;;;;;;;16.33;9.05;;;;;;;11.20;74.24;102427.59;5057423;28;20456;-72
2021/06/13 04:16:45;;;;;;;25.75;9.40;;;;;;;11.21;74.35;102426.69;5049603;28;20041;-72
2021/06/13 04:19:11;;;;;;;17.30;8.70;;;;;;;11.21;74.70;102431.88;5061540;28;20032;-72
2021/06/13 04:21:38;;;;;;;14.25;8.70;;;;;;;11.23;74.61;102436.94;5047794;28;20033;-72
2021/06/13 04:24:09;;;;;;;20.00;9.50;;;;;;;11.24;74.54;102436.81;5050653;28;20075;-72
2021/06/13 04:26:38;;;;;;;18.02;9.90;;;;;;;11.27;74.21;102443.53;5061426;28;20581;-72
2021/06/13 04:29:03;;;;;;;19.60;8.02;;;;;;;11.30;74.80;102438.09;5040147;28;20024;-73
2021/06/13 04:31:29;;;;;;;15.60;8.75;;;;;;;11.34;74.68;102443.88;5061298;28;20025;-71
2021/06/13 04:33:55;;;;;;;16.95;9.57;;;;;;;11.36;74.57;102437.63;5047673;28;20062;-72
2021/06/13 04:36:22;;;;;;;25.17;9.57;;;;;;;11.39;74.64;102445.16;5045481;28;20033;-72
2021/06/13 04:38:48;;;;;;;24.45;10.13;;;;;;;11.43;74.69;102444.00;5066342;28;20024;-73
2021/06/13 04:41:15;;;;;;;20.27;9.13;;;;;;;11.45;74.86;102447.28;5062610;28;20016;-73
2021/06/13 04:43:41;;;;;;;25.17;9.70;;;;;;;11.52;74.48;102447.63;5031731;28;20097;-73
2021/06/13 04:46:11;;;;;;;20.33;9.15;;;;;;;11.56;74.58;102451.63;5033626;28;20520;-73
2021/06/13 04:48:40;;;;;;;18.00;9.40;;;;;;;11.62;74.96;102463.28;5048372;28;20455;-73
2021/06/13 04:51:11;;;;;;;23.48;10.70;;;;;;;11.68;74.98;102468.03;5030054;28;20407;-73
2021/06/13 04:54:07;;;;;;;21.27;10.00;;;;;;;11.76;75.32;102467.41;5062422;28;20044;-73
2021/06/13 04:56:41;;;;;;;33.85;11.93;;;;;;;11.82;75.34;102464.31;5046460;28;20434;-73
2021/06/13 04:59:07;;;;;;;28.77;11.80;;;;;;;11.88;75.31;102472.44;5035711;28;20067;-73
2021/06/13 05:01:33;;;;;;;23.38;11.50;;;;;;;12.00;75.20;102470.66;5046570;28;20037;-73
2021/06/13 05:03:58;;;;;;;25.58;10.68;;;;;;;12.10;75.05;102475.09;5069627;28;20036;-73
2021/06/13 05:06:25;;;;;;;21.88;9.57;;;;;;;12.21;74.67;102469.84;5051182;28;20544;-73
2021/06/13 05:08:51;;;;;;;26.52;11.55;;;;;;;12.35;74.33;102479.09;5032781;28;20025;-73
2021/06/13 05:11:17;;;;;;;21.33;10.25;;;;;;;12.49;73.99;102471.00;5069219;28;20075;-73
2021/06/13 05:13:42;;;;;;;17.73;9.15;;;;;;;12.64;73.54;102482.72;5035500;28;20517;-73
2021/06/13 05:16:11;;;;;;;21.05;9.90;;;;;;;12.76;73.13;102480.03;5047896;28;20028;-72
2021/06/13 05:18:36;;;;;;;20.73;9.73;;;;;;;12.88;72.46;102472.97;5048481;28;20039;-73
2021/06/13 05:21:03;;;;;;;25.73;10.27;;;;;;;13.01;71.84;102479.59;5044617;28;20025;-73
2021/06/13 05:23:29;;;;;;;27.38;11.38;;;;;;;13.16;71.20;102484.44;5051025;28;20032;-73
2021/06/13 05:25:56;;;;;;;18.75;9.52;;;;;;;13.35;70.52;102486.31;5041473;28;20504;-73
2021/06/13 05:28:23;;;;;;;18.55;9.18;;;;;;;13.57;69.53;102485.28;5054236;28;20597;-73
2021/06/13 05:30:49;;;;;;;20.50;9.98;;;;;;;13.81;69.13;102477.88;5060586;28;20048;-73
2021/06/13 05:33:15;;;;;;;26.75;9.07;;;;;;;14.05;68.42;102484.47;5070062;28;20072;-73
2021/06/13 05:35:41;;;;;;;20.38;8.52;;;;;;;14.26;67.24;102489.56;5067877;28;20427;-73
2021/06/13 05:38:08;;;;;;;24.73;8.48;;;;;;;14.52;66.19;102495.00;5050633;28;20028;-73
2021/06/13 05:40:34;;;;;;;19.35;8.57;;;;;;;14.72;64.81;102501.00;5056749;28;20039;-73
2021/06/13 05:43:00;;;;;;;18.42;7.40;;;;;;;14.97;63.70;102493.50;5029538;28;20158;-73
2021/06/13 05:45:29;;;;;;;21.38;8.98;;;;;;;15.17;63.57;102497.69;5046984;28;20038;-73
2021/06/13 05:47:54;;;;;;;19.80;8.68;;;;;;;15.28;61.93;102494.06;5032021;28;20074;-73
2021/06/13 05:50:21;;;;;;;22.13;8.15;;;;;;;15.49;61.19;102503.44;5043178;28;20033;-73
2021/06/13 05:52:46;;;;;;;18.67;7.00;;;;;;;15.80;60.53;102498.69;5045588;28;20025;-73
2021/06/13 05:55:13;;;;;;;31.20;9.70;;;;;;;16.03;59.63;102506.09;5039891;28;20613;-75
2021/06/13 05:57:39;;;;;;;26.20;7.88;;;;;;;16.27;57.97;102500.22;5037503;28;20443;-77
2021/06/13 06:00:11;;;;;;;23.45;8.05;;;;;;;16.51;58.35;102503.00;5045553;28;20114;-75
2021/06/13 06:02:42;;;;;;;25.15;7.82;;;;;;;16.72;56.17;102497.41;5048567;28;20033;-75
2021/06/13 06:05:10;;;;;;;20.15;7.13;;;;;;;16.84;55.70;102507.63;5049139;28;20029;-75
2021/06/13 06:07:36;;;;;;;16.35;7.55;;;;;;;17.07;54.93;102502.69;5045718;28;20065;-74
2021/06/13 06:10:02;;;;;;;19.40;7.78;;;;;;;17.40;55.40;102521.13;5047090;28;20476;-76
2021/06/13 06:12:28;;;;;;;20.67;6.70;;;;;;;17.68;53.66;102521.69;5048175;28;20119;-76
2021/06/13 06:14:53;;;;;;;19.73;7.05;;;;;;;17.89;52.09;102516.84;5047591;28;20198;-75
2021/06/13 06:17:19;;;;;;;21.30;7.88;;;;;;;17.84;51.77;102523.53;5046003;28;20041;-74
2021/06/13 06:19:45;;;;;;;17.08;7.55;;;;;;;17.94;52.31;102523.41;5048865;28;20051;-75
2021/06/13 06:22:10;;;;;;;18.67;7.18;;;;;;;18.13;50.57;102514.41;5062534;28;20127;-75
2021/06/13 06:24:36;;;;;;;13.15;6.07;;;;;;;18.42;50.09;102514.69;5056459;28;20059;-75
2021/06/13 06:27:03;;;;;;;24.20;8.63;;;;;;;18.27;51.04;102517.19;5043772;28;20035;-75
2021/06/13 06:29:29;;;;;;;18.70;7.85;;;;;;;18.33;51.50;102517.47;5046313;28;20029;-75
2021/06/13 06:31:54;;;;;;;20.15;7.38;;;;;;;19.00;49.44;102527.72;5050090;28;20403;-76
2021/06/13 06:34:20;;;;;;;20.27;7.70;;;;;;;19.18;49.38;102532.75;5046242;28;20135;-75
2021/06/13 06:36:46;;;;;;;16.15;5.93;;;;;;;19.56;49.10;102531.06;5047598;28;20032;-76
2021/06/13 06:39:12;;;;;;;16.83;5.72;;;;;;;19.94;46.88;102533.78;5029385;28;20048;-75
2021/06/13 06:41:38;;;;;;;20.80;6.65;;;;;;;19.82;45.58;102530.75;5041515;28;20025;-75
2021/06/13 06:44:05;;;;;;;17.90;5.50;;;;;;;20.05;45.62;102537.81;5045098;28;20089;-76
2021/06/13 06:46:31;;;;;;;20.65;6.40;;;;;;;20.16;45.83;102540.03;5046329;28;20032;-75
2021/06/13 06:48:57;;;;;;;16.38;5.95;;;;;;;20.29;46.88;102538.63;5029191;28;20455;-75
2021/06/13 06:51:23;;;;;;;27.23;6.85;;;;;;;20.59;44.52;102536.84;5044804;28;20040;-76
2021/06/13 06:53:49;;;;;;;17.00;6.15;;;;;;;20.93;43.53;102531.03;5042907;28;20037;-76
2021/06/13 06:56:14;;;;;;;20.30;6.72;;;;;;;21.15;42.86;102539.00;5040141;28;20090;-75
2021/06/13 06:58:40;;;;;;;11.13;4.40;;;;;;;21.43;41.23;102538.31;5027200;28;20025;-76
2021/06/13 07:01:05;;;;;;;13.73;4.40;;;;;;;21.20;41.25;102542.72;5038078;28;20033;-75
2021/06/13 07:03:31;;;;;;;9.88;4.38;;;;;;;21.42;40.73;102547.22;5045776;28;20037;-75
2021/06/13 07:05:57;;;;;;;15.73;5.18;;;;;;;21.61;40.23;102544.03;5043598;28;20036;-75
2021/06/13 07:08:22;;;;;;;9.38;3.70;;;;;;;21.20;40.10;102553.28;5035486;28;20034;-76
2021/06/13 07:10:48;;;;;;;8.93;3.40;;;;;;;20.80;40.87;102549.31;5046991;28;20079;-76
2021/06/13 07:13:14;;;;;;;10.73;4.47;;;;;;;19.88;42.88;102557.38;5048329;28;20029;-75
2021/06/13 07:15:39;;;;;;;16.00;5.20;;;;;;;20.13;43.50;102555.38;5043223;28;20352;-75
2021/06/13 07:18:05;;;;;;;14.15;4.40;;;;;;;20.83;42.26;102556.03;5062577;28;20482;-75
2021/06/13 07:20:30;;;;;;;8.07;3.78;;;;;;;21.45;41.14;102554.81;5030213;28;20035;-75
2021/06/13 07:22:56;;;;;;;14.45;3.97;;;;;;;21.96;40.04;102552.06;5037186;28;20059;-77
2021/06/13 07:25:21;;;;;;;11.73;4.50;;;;;;;22.32;37.37;102556.44;5046984;28;20556;-75
2021/06/13 07:27:47;;;;;;;13.88;4.47;;;;;;;22.58;38.10;102553.19;5041539;28;20024;-76
2021/06/13 07:30:15;;;;;;;9.93;3.63;;;;;;;22.14;38.81;102548.97;5023124;28;20025;-76
2021/06/13 07:32:41;;;;;;;16.50;3.85;;;;;;;22.47;38.03;102551.91;5044921;28;20072;-75
2021/06/13 07:35:09;;;;;;;12.85;3.75;;;;;;;22.69;37.00;102557.13;5047055;28;20510;-76
2021/06/13 07:37:35;;;;;;;9.25;3.40;;;;;;;22.69;36.85;102551.81;5027360;28;20394;-76
2021/06/13 07:40:03;;;;;;;13.60;4.25;;;;;;;23.07;36.06;102565.47;5044197;28;20028;-76
2021/06/13 07:42:28;;;;;;;11.50;4.10;;;;;;;23.22;35.59;102559.22;5028149;28;20051;-75
2021/06/13 07:44:54;;;;;;;13.98;4.47;;;;;;;23.20;35.72;102555.97;5047532;28;20479;-76
2021/06/13 07:47:19;;;;;;;9.90;3.65;;;;;;;23.22;35.46;102559.22;5026023;28;20034;-75
2021/06/13 07:49:48;;;;;;;12.55;4.18;;;;;;;23.75;34.87;102559.34;5047650;28;20028;-75
2021/06/13 07:52:13;;;;;;;11.45;3.60;;;;;;;24.06;34.37;102563.28;5045903;28;20024;-76
2021/06/13 07:54:39;;;;;;;12.55;3.67;;;;;;;24.40;34.92;102562.25;5045630;28;20039;-76
2021/06/13 07:57:05;;;;;;;9.75;3.92;;;;;;;24.02;33.82;102559.44;5025186;28;20025;-76
2021/06/13 07:59:30;;;;;;;11.48;3.95;;;;;;;23.71;34.14;102563.44;5049649;28;20037;-76
2021/06/13 08:01:56;;;;;;;9.68;3.30;;;;;;;23.99;33.94;102560.63;5049650;28;20024;-76
2021/06/13 08:04:22;;;;;;;9.45;3.47;;;;;;;24.29;33.57;102557.56;5043527;28;20029;-75
2021/06/13 08:06:47;;;;;;;12.23;3.90;;;;;;;24.10;33.62;102551.25;5044390;28;20033;-75
2021/06/13 08:09:14;;;;;;;12.48;3.17;;;;;;;24.30;33.88;102564.50;5041306;28;20633;-75
2021/06/13 08:11:39;;;;;;;13.27;4.45;;;;;;;24.35;33.00;102547.97;5040588;28;20031;-75
2021/06/13 08:14:05;;;;;;;8.32;3.00;;;;;;;24.64;33.66;102560.00;5048275;28;20124;-76
2021/06/13 08:16:31;;;;;;;12.75;4.05;;;;;;;24.96;33.02;102554.78;5042992;28;20491;-75
2021/06/13 08:18:56;;;;;;;16.20;5.07;;;;;;;24.95;32.50;102553.97;5042651;28;20037;-76
2021/06/13 08:21:22;;;;;;;13.52;4.07;;;;;;;25.08;31.66;102560.25;5054321;28;20040;-76
2021/06/13 08:23:47;;;;;;;12.23;3.70;;;;;;;24.65;32.88;102562.44;5038383;28;20037;-75
2021/06/13 08:26:13;;;;;;;8.13;3.33;;;;;;;24.43;31.82;102564.50;5041709;28;20140;-75
2021/06/13 08:28:39;;;;;;;13.52;3.75;;;;;;;24.19;33.60;102558.00;5030055;28;20507;-75
2021/06/13 08:31:05;;;;;;;10.15;3.28;;;;;;;24.58;33.36;102566.94;5044213;28;20032;-75
2021/06/13 08:33:31;;;;;;;7.63;3.17;;;;;;;24.81;32.58;102565.66;5048948;28;20474;-76
2021/06/13 08:35:57;;;;;;;13.50;3.83;;;;;;;24.77;30.66;102562.63;5054346;28;20039;-76
2021/06/13 08:38:24;;;;;;;8.65;3.75;;;;;;;25.15;32.14;102572.47;5050261;28;20041;-76
2021/06/13 08:40:50;;;;;;;10.07;3.47;;;;;;;25.34;31.39;102560.16;5040789;28;20095;-75
2021/06/13 08:43:18;;;;;;;7.45;3.35;;;;;;;25.13;31.59;102571.03;5060220;28;20127;-76
2021/06/13 08:45:44;;;;;;;11.60;3.53;;;;;;;24.85;31.32;102567.69;5066595;28;20082;-76
2021/06/13 08:48:11;;;;;;;11.90;3.72;;;;;;;24.95;32.37;102559.28;5069039;28;20086;-75
2021/06/13 08:50:38;;;;;;;11.82;4.68;;;;;;;24.90;32.45;102560.94;5051656;28;20495;-76
2021/06/13 08:53:05;;;;;;;11.75;3.75;;;;;;;24.67;31.70;102557.72;5050406;28;20677;-75
2021/06/13 08:55:32;;;;;;;17.38;4.60;;;;;;;24.79;33.11;102554.44;5054620;28;20037;-75
2021/06/13 08:57:58;;;;;;;10.25;3.85;;;;;;;25.13;32.13;102553.28;5050233;28;20032;-76
2021/06/13 09:00:30;;;;;;;11.52;4.10;;;;;;;24.74;32.84;102559.56;5068213;28;20033;-75
2021/06/13 09:02:57;;;;;;;14.77;4.45;;;;;;;25.03;32.58;102559.06;5031509;28;20087;-76
2021/06/13 09:05:25;;;;;;;15.32;4.25;;;;;;;25.21;32.46;102552.25;5052853;28;20036;-75
2021/06/13 09:07:54;;;;;;;7.55;3.35;;;;;;;25.55;32.24;102555.56;5049674;28;20036;-75
2021/06/13 09:10:23;;;;;;;9.05;3.75;;;;;;;25.34;30.77;102549.53;5069258;28;20462;-75
2021/06/13 09:12:49;;;;;;;13.73;4.40;;;;;;;25.00;31.58;102556.00;5050857;28;20040;-76
2021/06/13 09:15:16;;;;;;;13.15;3.97;;;;;;;24.56;33.42;102562.84;5032097;28;20067;-75
2021/06/13 09:17:42;;;;;;;8.40;3.38;;;;;;;24.37;33.39;102564.50;5064267;28;20072;-74
2021/06/13 09:20:27;;;;;;;14.38;4.05;;;;;;;24.84;34.48;102565.22;5035624;28;20025;-75
2021/06/13 09:23:11;;;;;;;6.97;3.25;;;;;;;25.08;31.79;102558.41;5047904;28;20140;-75
2021/06/13 09:25:41;;;;;;;12.25;3.95;;;;;;;25.21;32.22;102561.00;5053717;28;20449;-76
2021/06/13 09:28:14;;;;;;;11.48;3.67;;;;;;;25.08;32.23;102561.06;5061466;28;20060;-77
2021/06/13 09:30:43;;;;;;;10.40;3.15;;;;;;;25.11;31.31;102563.31;5058498;28;20422;-75
2021/06/13 09:33:17;;;;;;;9.90;4.10;;;;;;;25.24;31.78;102557.97;5047793;28;20127;-76
2021/06/13 09:35:45;;;;;;;10.35;3.60;;;;;;;25.20;31.00;102555.91;5046684;28;20040;-75
2021/06/13 09:38:22;;;;;;;10.75;3.67;;;;;;;25.32;31.50;102551.59;5068335;28;20028;-76
2021/06/13 09:41:06;;;;;;;8.82;3.90;;;;;;;25.34;31.14;102557.50;5061386;28;20533;-75
2021/06/13 09:43:42;;;;;;;9.70;4.20;;;;;;;24.99;30.61;102557.81;5068347;28;20047;-75
2021/06/13 09:46:16;;;;;;;7.38;3.13;;;;;;;25.08;31.69;102553.09;5069973;28;20505;-75
2021/06/13 09:48:53;;;;;;;7.78;3.08;;;;;;;25.18;32.10;102555.31;5070408;28;20050;-75
2021/06/13 09:51:24;;;;;;;7.40;3.05;;;;;;;24.86;31.05;102555.22;5041524;28;20495;-76
2021/06/13 09:53:55;;;;;;;10.55;3.10;;;;;;;25.22;30.66;102554.69;5056908;28;20105;-75
2021/06/13 09:56:32;;;;;;;5.90;2.78;;;;;;;25.06;30.17;102563.94;5051581;28;20513;-76
2021/06/13 09:59:06;;;;;;;6.60;3.35;;;;;;;25.19;30.87;102563.06;5049607;28;20123;-75
2021/06/13 10:01:53;;;;;;;11.60;3.53;;;;;;;25.19;32.05;102567.56;5051258;28;20032;-76
2021/06/13 10:04:18;;;;;;;10.60;3.58;;;;;;;25.45;32.36;102562.13;5066164;28;20024;-75
2021/06/13 10:06:49;;;;;;;9.60;3.35;;;;;;;25.38;31.81;102557.91;5051944;28;20435;-76
2021/06/13 10:09:16;;;;;;;10.25;3.38;;;;;;;25.29;32.67;102551.19;5069995;28;20048;-76
2021/06/13 10:11:42;;;;;;;11.93;4.35;;;;;;;25.08;34.44;102550.47;5059743;28;20578;-75
2021/06/13 10:14:17;;;;;;;11.98;4.07;;;;;;;25.54;32.89;102551.25;5052080;28;20136;-75
2021/06/13 10:16:51;;;;;;;10.45;3.78;;;;;;;25.45;33.07;102556.03;5069032;28;20044;-76
2021/06/13 10:19:19;;;;;;;9.02;3.88;;;;;;;25.33;30.77;102555.06;5064158;28;20037;-75
2021/06/13 10:21:57;;;;;;;9.32;4.35;;;;;;;24.72;31.67;102557.13;5049701;28;20115;-75
2021/06/13 10:24:25;;;;;;;8.88;3.38;;;;;;;25.13;32.49;102557.78;5063406;28;20032;-76
2021/06/13 10:26:53;;;;;;;8.20;3.58;;;;;;;24.96;31.84;102563.56;5035124;28;20024;-76
2021/06/13 10:29:20;;;;;;;9.75;3.92;;;;;;;24.50;31.71;102569.78;5045151;28;20037;-76
2021/06/13 10:31:48;;;;;;;8.02;3.72;;;;;;;24.47;31.69;102556.94;5051584;28;20028;-75
2021/06/13 10:34:16;;;;;;;11.20;4.07;;;;;;;24.70;32.93;102558.34;5069604;28;20040;-75
2021/06/13 10:36:42;;;;;;;8.45;2.90;;;;;;;24.71;31.36;102567.94;5067389;28;20430;-75
2021/06/13 10:39:10;;;;;;;9.07;2.90;;;;;;;24.76;29.75;102557.53;5068738;28;20081;-76
2021/06/13 10:41:37;;;;;;;8.68;3.22;;;;;;;24.66;31.80;102560.59;5041506;28;20040;-76
2021/06/13 10:44:10;;;;;;;10.10;3.30;;;;;;;24.56;32.03;102553.06;5039741;28;20033;-75
2021/06/13 10:46:38;;;;;;;10.68;5.00;;;;;;;24.74;31.64;102551.59;5047210;28;20037;-75
2021/06/13 10:49:05;;;;;;;10.35;3.50;;;;;;;25.05;31.94;102551.69;5049606;28;20032;-75
2021/06/13 10:51:46;;;;;;;7.70;3.53;;;;;;;25.19;31.60;102546.34;5046770;28;20096;-76
2021/06/13 10:54:23;;;;;;;10.55;3.90;;;;;;;25.33;32.34;102547.91;5060953;28;20044;-75
2021/06/13 10:56:51;;;;;;;9.65;4.13;;;;;;;25.64;33.27;102544.44;5051441;28;20068;-75
2021/06/13 10:59:18;;;;;;;8.38;2.67;;;;;;;25.71;31.70;102547.06;5040810;28;20025;-76
2021/06/13 11:02:13;;;;;;;9.75;3.85;;;;;;;25.31;31.44;102551.81;5048377;28;20473;-75
2021/06/13 11:04:44;;;;;;;9.23;3.05;;;;;;;25.41;32.63;102552.13;5047800;28;20044;-76
2021/06/13 11:07:11;;;;;;;8.73;3.10;;;;;;;25.56;33.50;102551.84;5049624;28;20033;-76
2021/06/13 11:10:05;;;;;;;9.82;2.97;;;;;;;25.60;31.35;102545.91;5047304;28;20437;-76
2021/06/13 11:12:40;;;;;;;10.15;3.70;;;;;;;25.26;31.07;102544.50;5034907;28;20515;-76
2021/06/13 11:15:07;;;;;;;8.13;2.90;;;;;;;25.05;31.93;102543.75;5043097;28;20068;-75
2021/06/13 11:17:54;;;;;;;12.02;3.60;;;;;;;25.52;30.79;102542.69;5041971;28;20029;-76
2021/06/13 11:23:27;;;;;;;10.15;3.83;;;;;;;25.24;31.18;102536.72;5046744;28;20037;-76
2021/06/13 11:25:56;;;;;;;10.68;4.70;;;;;;;24.46;31.36;102529.59;5041632;28;20714;-75
2021/06/13 11:28:46;;;;;;;9.15;4.03;;;;;;;24.43;32.77;102531.84;5041765;28;20033;-75
2021/06/13 11:31:15;;;;;;;15.18;4.28;;;;;;;24.77;32.81;102529.97;5025598;28;20117;-75
2021/06/13 11:33:43;;;;;;;9.00;3.30;;;;;;;25.23;32.99;102521.81;5047248;28;20064;-75